Time;durP1;ratioP1;P1;durP2;ratioP2;P2;SDS_P1;SDS_P2;PMS_P1;PMS_P2;Temp;Humidity;BMP_temperature;BMP_pressure;BME280_temperature;BME280_humidity;BME280_pressure;Samples;Min_cycle;Max_cycle;Signal;HPM_P1;HPM_P2
2021/10/04 00:00:48;0.00;0.00;0.62;0.00;0.00;0.62;1.20;0.63;;;28.60;31.50;;;;;;2253591;61;20379;-65
2021/10/04 00:03:33;0.00;0.00;0.62;0.00;0.00;0.62;1.20;0.70;;;28.60;31.50;;;;;;2252987;61;20375;-64
2021/10/04 00:06:18;0.00;0.00;0.62;0.00;0.00;0.62;1.30;0.70;;;28.60;31.50;;;;;;2253341;61;20596;-65
2021/10/04 00:09:03;0.00;0.00;0.62;0.00;0.00;0.62;1.40;0.80;;;28.60;31.50;;;;;;2253745;61;20620;-65
2021/10/04 00:11:47;0.00;0.00;0.62;0.00;0.00;0.62;1.50;0.80;;;28.60;31.50;;;;;;2254142;61;20359;-65
2021/10/04 00:14:32;0.00;0.00;0.62;0.00;0.00;0.62;1.10;0.60;;;28.60;31.50;;;;;;2254323;61;20387;-64
2021/10/04 00:17:18;0.00;0.00;0.62;0.00;0.00;0.62;1.50;0.80;;;28.60;31.50;;;;;;2254000;61;20355;-67
2021/10/04 00:20:06;0.00;0.00;0.62;0.00;0.00;0.62;1.70;0.87;;;28.60;31.50;;;;;;2254207;61;20410;-64
2021/10/04 00:22:51;0.00;0.00;0.62;0.00;0.00;0.62;1.93;0.80;;;28.60;31.50;;;;;;2254321;61;20394;-65
2021/10/04 00:25:36;0.00;0.00;0.62;0.00;0.00;0.62;1.40;0.70;;;28.60;31.50;;;;;;2253861;61;20811;-65
2021/10/04 00:28:21;0.00;0.00;0.62;0.00;0.00;0.62;1.40;0.70;;;28.60;31.50;;;;;;2254091;61;20671;-65
2021/10/04 00:31:05;0.00;0.00;0.62;0.00;0.00;0.62;1.30;0.70;;;28.60;31.50;;;;;;2254347;61;20587;-65
2021/10/04 00:33:51;0.00;0.00;0.62;0.00;0.00;0.62;1.20;0.70;;;28.60;31.50;;;;;;2253800;61;20404;-65
2021/10/04 00:36:36;0.00;0.00;0.62;0.00;0.00;0.62;1.30;0.70;;;28.60;31.50;;;;;;2254227;61;20364;-64
2021/10/04 00:39:20;0.00;0.00;0.62;0.00;0.00;0.62;1.17;0.67;;;28.60;31.50;;;;;;2254180;61;20367;-64
2021/10/04 00:42:05;0.00;0.00;0.62;0.00;0.00;0.62;1.20;0.60;;;28.60;31.50;;;;;;2253772;61;20521;-64
2021/10/04 00:44:51;0.00;0.00;0.62;0.00;0.00;0.62;1.20;0.70;;;28.60;31.50;;;;;;2254165;61;20751;-65
2021/10/04 00:47:36;0.00;0.00;0.62;0.00;0.00;0.62;1.30;0.80;;;28.60;31.50;;;;;;2253890;61;20748;-65
2021/10/04 00:50:23;0.00;0.00;0.62;0.00;0.00;0.62;1.37;0.70;;;28.60;31.60;;;;;;2254085;61;20557;-64
2021/10/04 00:53:07;0.00;0.00;0.62;0.00;0.00;0.62;1.40;0.70;;;28.60;31.60;;;;;;2254188;61;20438;-66
2021/10/04 00:55:52;0.00;0.00;0.62;0.00;0.00;0.62;1.30;0.60;;;28.60;31.60;;;;;;2253797;61;20809;-65
2021/10/04 00:58:37;0.00;0.00;0.62;0.00;0.00;0.62;2.90;0.80;;;28.60;31.60;;;;;;2253939;61;20360;-64
2021/10/04 01:01:21;0.00;0.00;0.62;0.00;0.00;0.62;1.30;0.83;;;28.60;31.60;;;;;;2253661;61;20428;-67
2021/10/04 01:04:06;0.00;0.00;0.62;0.00;0.00;0.62;1.83;0.70;;;28.60;31.60;;;;;;2253405;61;20419;-67
2021/10/04 01:06:52;0.00;0.00;0.62;0.00;0.00;0.62;2.07;0.80;;;28.60;31.50;;;;;;2254105;61;20359;-67
2021/10/04 01:09:38;0.00;0.00;0.62;0.00;0.00;0.62;1.30;0.70;;;28.60;31.30;;;;;;2253614;61;20724;-67
2021/10/04 01:12:22;0.00;0.00;0.62;0.00;0.00;0.62;1.93;0.80;;;28.60;31.10;;;;;;2253595;61;20459;-67
2021/10/04 01:15:09;0.00;0.00;0.62;0.00;0.00;0.62;1.30;0.80;;;28.60;31.00;;;;;;2254126;61;20760;-67
2021/10/04 01:17:54;0.00;0.00;0.62;0.00;0.00;0.62;1.50;0.97;;;28.50;30.80;;;;;;2253418;61;20359;-67
2021/10/04 01:20:40;0.00;0.00;0.62;0.00;0.00;0.62;1.83;0.70;;;28.50;30.70;;;;;;2253760;61;20387;-66
2021/10/04 01:23:28;0.00;0.00;0.62;0.00;0.00;0.62;2.43;0.90;;;28.50;30.50;;;;;;2253617;61;20500;-66
2021/10/04 01:26:12;0.00;0.00;0.62;0.00;0.00;0.62;1.30;0.80;;;28.40;30.40;;;;;;2253396;61;20423;-67
2021/10/04 01:28:57;0.00;0.00;0.62;0.00;0.00;0.62;1.27;0.70;;;28.40;30.30;;;;;;2254126;61;20359;-66
2021/10/04 01:31:42;0.00;0.00;0.62;0.00;0.00;0.62;1.30;0.80;;;28.40;30.30;;;;;;2253509;61;20364;-68
2021/10/04 01:34:26;0.00;0.00;0.62;0.00;0.00;0.62;1.30;0.73;;;28.40;30.20;;;;;;2253504;61;20379;-68
2021/10/04 01:37:12;0.00;0.00;0.62;0.00;0.00;0.62;1.30;0.70;;;28.40;30.20;;;;;;2254248;61;20578;-68
2021/10/04 01:39:57;0.00;0.00;0.62;0.00;0.00;0.62;2.00;0.90;;;28.30;30.10;;;;;;2253438;61;20367;-68
2021/10/04 01:42:43;0.00;0.00;0.62;0.00;0.00;0.62;1.47;0.80;;;28.30;30.00;;;;;;2253580;61;20376;-67
2021/10/04 01:45:29;0.00;0.00;0.62;0.00;0.00;0.62;1.20;0.80;;;28.30;30.10;;;;;;2253782;61;20391;-67
2021/10/04 01:48:13;0.00;0.00;0.62;0.00;0.00;0.62;2.90;1.10;;;28.20;30.00;;;;;;2253374;61;20379;-67
2021/10/04 01:50:58;0.00;0.00;0.62;0.00;0.00;0.62;1.27;0.80;;;28.20;30.00;;;;;;2254090;61;20356;-67
2021/10/04 01:53:44;0.00;0.00;0.62;0.00;0.00;0.62;1.20;0.70;;;28.20;30.00;;;;;;2253382;61;20364;-67
2021/10/04 01:56:29;0.00;0.00;0.62;0.00;0.00;0.62;1.67;0.90;;;28.10;30.00;;;;;;2253676;61;20480;-68
2021/10/04 01:59:13;0.00;0.00;0.62;0.00;0.00;0.62;1.60;0.80;;;28.10;30.00;;;;;;2254144;61;20372;-68
2021/10/04 02:01:58;0.00;0.00;0.62;0.00;0.00;0.62;1.60;0.80;;;28.10;30.00;;;;;;2253227;61;20355;-67
2021/10/04 02:04:42;0.00;0.00;0.62;0.00;0.00;0.62;1.60;1.00;;;28.10;30.00;;;;;;2253524;61;20419;-67
2021/10/04 02:07:27;0.00;0.00;0.62;0.00;0.00;0.62;1.83;0.80;;;28.10;30.10;;;;;;2254350;61;20363;-67
2021/10/04 02:10:17;0.00;0.00;0.62;0.00;0.00;0.62;1.20;0.70;;;28.00;30.00;;;;;;2253697;61;20395;-67
2021/10/04 02:13:05;0.00;0.00;0.62;0.00;0.00;0.62;1.70;0.80;;;28.00;30.00;;;;;;2254046;61;20364;-67
2021/10/04 02:15:51;0.00;0.00;0.62;0.00;0.00;0.62;3.17;1.00;;;28.00;30.00;;;;;;2253644;61;20744;-67
2021/10/04 02:18:36;0.00;0.00;0.62;0.00;0.00;0.62;1.50;0.80;;;28.00;30.00;;;;;;2253551;61;20359;-67
2021/10/04 02:21:20;0.00;0.00;0.62;0.00;0.00;0.62;2.10;1.00;;;27.90;29.90;;;;;;2253939;61;20367;-67
2021/10/04 02:24:05;0.00;0.00;0.62;0.00;0.00;0.62;1.30;0.77;;;27.90;29.90;;;;;;2253071;61;20478;-66
2021/10/04 02:26:51;0.00;0.00;0.62;0.00;0.00;0.62;1.83;0.90;;;27.90;29.90;;;;;;2253722;61;20407;-67
2021/10/04 02:29:36;0.00;0.00;0.62;0.00;0.00;0.62;1.60;0.90;;;27.80;29.80;;;;;;2254012;61;20413;-67
2021/10/04 02:32:20;0.00;0.00;0.62;0.00;0.00;0.62;1.37;0.90;;;27.80;29.80;;;;;;2253511;61;20483;-68
2021/10/04 02:35:07;0.00;0.00;0.62;0.00;0.00;0.62;1.47;0.87;;;27.80;29.80;;;;;;2253893;61;20379;-67
2021/10/04 02:37:53;0.00;0.00;0.62;0.00;0.00;0.62;1.80;0.80;;;27.80;29.80;;;;;;2253443;61;20647;-66
2021/10/04 02:40:39;0.00;0.00;0.62;0.00;0.00;0.62;1.40;0.90;;;27.70;29.80;;;;;;2253070;61;20720;-67
2021/10/04 02:43:25;0.00;0.00;0.62;0.00;0.00;0.62;1.50;0.97;;;27.70;29.70;;;;;;2253579;61;20379;-67
2021/10/04 02:46:11;0.00;0.00;0.62;0.00;0.00;0.62;2.30;1.00;;;27.70;29.70;;;;;;2253153;61;20499;-67
2021/10/04 02:48:56;0.00;0.00;0.62;0.00;0.00;0.62;1.50;0.80;;;27.70;29.70;;;;;;2253631;61;20368;-67
2021/10/04 02:51:40;0.00;0.00;0.62;0.00;0.00;0.62;1.87;0.77;;;27.70;29.70;;;;;;2253778;61;20359;-67
2021/10/04 02:54:25;0.00;0.00;0.62;0.00;0.00;0.62;1.93;0.90;;;27.70;29.70;;;;;;2253270;61;20450;-67
2021/10/04 02:57:09;0.00;0.00;0.62;0.00;0.00;0.62;1.40;1.00;;;27.70;29.80;;;;;;2253448;61;20467;-67
2021/10/04 02:59:56;0.00;0.00;0.62;0.00;0.00;0.62;1.30;0.70;;;27.60;29.70;;;;;;2253334;61;20363;-67
2021/10/04 03:02:40;0.00;0.00;0.62;0.00;0.00;0.62;2.13;1.10;;;27.60;29.70;;;;;;2253119;61;20360;-67
2021/10/04 03:05:25;0.00;0.00;0.62;0.00;0.00;0.62;1.47;0.87;;;27.60;29.70;;;;;;2253713;61;20415;-67
2021/10/04 03:08:10;0.00;0.00;0.62;0.00;0.00;0.62;1.40;0.90;;;27.60;29.70;;;;;;2253151;61;20383;-67
2021/10/04 03:10:54;0.00;0.00;0.62;0.00;0.00;0.62;1.60;0.90;;;27.60;29.80;;;;;;2253536;61;20355;-67
2021/10/04 03:13:39;0.00;0.00;0.62;0.00;0.00;0.62;1.70;1.00;;;27.50;29.70;;;;;;2253731;61;20356;-67
2021/10/04 03:16:25;0.00;0.00;0.62;0.00;0.00;0.62;1.60;0.90;;;27.50;29.80;;;;;;2253204;61;20356;-67
2021/10/04 03:19:10;0.00;0.00;0.62;0.00;0.00;0.62;1.63;0.83;;;27.50;29.80;;;;;;2253308;61;20360;-67
2021/10/04 03:21:55;0.00;0.00;0.62;0.00;0.00;0.62;1.47;0.83;;;27.50;29.80;;;;;;2253254;61;20399;-67
2021/10/04 03:24:39;0.00;0.00;0.62;0.00;0.00;0.62;1.50;0.87;;;27.50;29.80;;;;;;2253033;61;20755;-67
2021/10/04 03:27:24;0.00;0.00;0.62;0.00;0.00;0.62;2.07;0.90;;;27.50;29.80;;;;;;2253659;61;20368;-67
2021/10/04 03:30:09;0.00;0.00;0.62;0.00;0.00;0.62;1.23;0.73;;;27.40;29.80;;;;;;2253041;61;20719;-67
2021/10/04 03:32:55;0.00;0.00;0.62;0.00;0.00;0.62;1.40;0.90;;;27.40;29.80;;;;;;2253070;61;20362;-67
2021/10/04 03:35:39;0.00;0.00;0.62;0.00;0.00;0.62;1.60;0.80;;;27.40;29.80;;;;;;2253886;61;20399;-67
2021/10/04 03:38:24;0.00;0.00;0.62;0.00;0.00;0.62;1.70;0.80;;;27.40;29.90;;;;;;2252980;61;20403;-67
2021/10/04 03:41:09;0.00;0.00;0.62;0.00;0.00;0.62;4.40;1.23;;;27.40;29.90;;;;;;2253492;61;20360;-67
2021/10/04 03:43:54;0.00;0.00;0.62;0.00;0.00;0.62;2.03;0.90;;;27.40;29.90;;;;;;2253056;61;20395;-67
2021/10/04 03:46:39;0.00;0.00;0.62;0.00;0.00;0.62;1.37;0.90;;;27.40;29.90;;;;;;2252949;61;20386;-67
2021/10/04 03:49:25;0.00;0.00;0.62;0.00;0.00;0.62;1.50;0.80;;;27.40;29.90;;;;;;2253779;61;20819;-67
2021/10/04 03:52:09;0.00;0.00;0.62;0.00;0.00;0.62;1.57;0.80;;;27.40;29.90;;;;;;2253037;61;20484;-67
2021/10/04 03:54:54;0.00;0.00;0.62;0.00;0.00;0.62;1.40;0.90;;;27.30;29.90;;;;;;2253104;61;20442;-67
2021/10/04 03:57:40;0.00;0.00;0.62;0.00;0.00;0.62;1.50;0.83;;;27.30;29.90;;;;;;2253718;61;20367;-67
2021/10/04 04:00:27;0.00;0.00;0.62;0.00;0.00;0.62;1.37;0.90;;;27.40;29.90;;;;;;2255136;61;20759;-67
2021/10/04 04:03:11;0.00;0.00;0.62;0.00;0.00;0.62;2.73;1.27;;;27.30;29.90;;;;;;2255476;61;20436;-67
2021/10/04 04:05:57;0.00;0.00;0.62;0.00;0.00;0.62;2.43;1.17;;;27.30;29.90;;;;;;2253628;61;20622;-67
2021/10/04 04:08:42;0.00;0.00;0.62;0.00;0.00;0.62;2.30;1.13;;;27.20;29.80;;;;;;2253120;61;20368;-67
2021/10/04 04:11:26;0.00;0.00;0.62;0.00;0.00;0.62;2.20;1.33;;;27.30;29.90;;;;;;2253680;61;20395;-67
2021/10/04 04:14:11;0.00;0.00;0.62;0.00;0.00;0.62;1.40;0.80;;;27.30;29.80;;;;;;2253054;61;20419;-67
2021/10/04 04:16:55;0.00;0.00;0.62;0.00;0.00;0.62;1.50;1.07;;;27.20;29.80;;;;;;2253178;61;20720;-67
2021/10/04 04:19:40;0.00;0.00;0.62;0.00;0.00;0.62;2.23;1.00;;;27.20;29.80;;;;;;2255974;61;20367;-67
2021/10/04 04:22:26;0.00;0.00;0.62;0.00;0.00;0.62;1.50;0.90;;;27.20;29.70;;;;;;2252764;61;20488;-67
2021/10/04 04:25:12;0.00;0.00;0.62;0.00;0.00;0.62;3.90;1.20;;;27.20;29.70;;;;;;2253245;61;20396;-67
2021/10/04 04:27:58;0.00;0.00;0.62;0.00;0.00;0.62;2.10;1.10;;;27.20;29.70;;;;;;2253567;61;20448;-67
2021/10/04 04:30:43;0.00;0.00;0.62;0.00;0.00;0.62;3.07;1.40;;;27.20;29.70;;;;;;2253328;61;20364;-68
2021/10/04 04:33:28;0.00;0.00;0.62;0.00;0.00;0.62;1.70;1.10;;;27.10;29.70;;;;;;2253416;61;20587;-67
2021/10/04 04:36:12;0.00;0.00;0.62;0.00;0.00;0.62;2.60;1.40;;;27.20;29.70;;;;;;2253093;61;20583;-67
2021/10/04 04:38:58;0.00;0.00;0.62;0.00;0.00;0.62;3.07;1.03;;;27.10;29.60;;;;;;2253144;61;20363;-67
2021/10/04 04:41:42;0.00;0.00;0.62;0.00;0.00;0.62;2.03;1.10;;;27.10;29.60;;;;;;2253462;61;20375;-68
2021/10/04 04:44:28;0.00;0.00;0.62;0.00;0.00;0.62;1.93;1.07;;;27.10;29.60;;;;;;2252722;61;20740;-67
2021/10/04 04:47:12;0.00;0.00;0.62;0.00;0.00;0.62;1.80;0.93;;;27.10;29.60;;;;;;2253194;61;20668;-67
2021/10/04 04:49:57;0.00;0.00;0.62;0.00;0.00;0.62;1.90;1.00;;;27.00;29.50;;;;;;2253593;61;20744;-68
2021/10/04 04:52:41;0.00;0.00;0.62;0.00;0.00;0.62;4.60;1.37;;;27.00;29.60;;;;;;2252452;61;20439;-67
2021/10/04 04:55:27;0.00;0.00;0.62;0.00;0.00;0.62;2.90;1.20;;;27.00;29.50;;;;;;2253276;61;20374;-67
2021/10/04 04:58:12;0.00;0.00;0.62;0.00;0.00;0.62;2.23;1.10;;;27.00;29.50;;;;;;2253868;61;20367;-67
2021/10/04 05:00:56;0.00;0.00;0.62;0.00;0.00;0.62;2.63;1.40;;;27.00;29.50;;;;;;2253423;61;20403;-67
2021/10/04 05:03:41;0.00;0.00;0.62;0.00;0.00;0.62;3.87;1.17;;;27.00;29.50;;;;;;2253945;61;20364;-67
2021/10/04 05:06:26;0.00;0.00;0.62;0.00;0.00;0.62;2.77;1.33;;;27.00;29.50;;;;;;2253473;61;20386;-67
2021/10/04 05:09:11;0.00;0.00;0.62;0.00;0.00;0.62;2.27;1.07;;;27.00;29.50;;;;;;2253731;61;20407;-67
2021/10/04 05:11:56;0.00;0.00;0.62;0.00;0.00;0.62;5.63;1.20;;;26.90;29.50;;;;;;2254194;61;20380;-67
2021/10/04 05:14:41;0.00;0.00;0.62;0.00;0.00;0.62;2.83;1.20;;;26.90;29.40;;;;;;2253506;61;20390;-67
2021/10/04 05:17:26;0.00;0.00;0.62;0.00;0.00;0.62;2.50;1.17;;;26.90;29.40;;;;;;2253780;61;20638;-68
2021/10/04 05:20:12;0.00;0.00;0.62;0.00;0.00;0.62;2.80;1.30;;;26.90;29.50;;;;;;2253828;61;20728;-68
2021/10/04 05:22:57;0.00;0.00;0.62;0.00;0.00;0.62;2.43;0.97;;;26.90;29.50;;;;;;2253293;61;20359;-68
2021/10/04 05:25:41;0.00;0.00;0.62;0.00;0.00;0.62;3.30;1.20;;;26.90;29.50;;;;;;2254002;61;20439;-68
2021/10/04 05:28:27;0.00;0.00;0.62;0.00;0.00;0.62;3.50;1.50;;;26.80;29.40;;;;;;2253368;61;20360;-68
2021/10/04 05:31:11;0.00;0.00;0.62;0.00;0.00;0.62;1.90;1.20;;;26.80;29.40;;;;;;2253560;61;20459;-67
2021/10/04 05:33:56;0.00;0.00;0.62;0.00;0.00;0.62;2.40;1.27;;;26.80;29.40;;;;;;2253915;61;20495;-67
2021/10/04 05:36:41;0.00;0.00;0.62;0.00;0.00;0.62;3.07;1.40;;;26.80;29.40;;;;;;2253415;61;20384;-67
2021/10/04 05:39:26;0.00;0.00;0.62;0.00;0.00;0.62;3.50;1.70;;;26.80;29.40;;;;;;2253821;61;20732;-67
2021/10/04 05:42:10;0.00;0.00;0.62;0.00;0.00;0.62;2.97;1.47;;;26.80;29.40;;;;;;2253852;61;20399;-68
2021/10/04 05:44:56;0.00;0.00;0.62;0.00;0.00;0.62;2.23;1.30;;;26.70;29.40;;;;;;2253451;61;20434;-68
2021/10/04 05:47:43;0.00;0.00;0.62;0.00;0.00;0.62;4.20;1.30;;;26.70;29.40;;;;;;2254177;61;20368;-68
2021/10/04 05:50:27;0.00;0.00;0.62;0.00;0.00;0.62;1.87;1.13;;;26.70;29.40;;;;;;2253769;61;20479;-67
2021/10/04 05:53:12;0.00;0.00;0.62;0.00;0.00;0.62;2.47;1.30;;;26.70;29.30;;;;;;2253424;61;20360;-67
2021/10/04 05:55:56;0.00;0.00;0.62;0.00;0.00;0.62;4.07;1.60;;;26.70;29.30;;;;;;2254075;61;20460;-68
2021/10/04 05:58:40;0.00;0.00;0.62;0.00;0.00;0.62;2.70;1.43;;;26.70;29.30;;;;;;2253392;61;20610;-66
2021/10/04 06:01:26;0.00;0.00;0.62;0.00;0.00;0.62;2.80;1.30;;;26.70;29.30;;;;;;2253620;61;20672;-66
2021/10/04 06:04:11;0.00;0.00;0.62;0.00;0.00;0.62;4.63;1.30;;;26.60;29.30;;;;;;2253977;61;20450;-67
2021/10/04 06:06:56;0.00;0.00;0.62;0.00;0.00;0.62;2.53;1.20;;;26.60;29.20;;;;;;2253457;61;20391;-68
2021/10/04 06:09:41;0.00;0.00;0.62;0.00;0.00;0.62;1.73;1.10;;;26.60;29.20;;;;;;2254010;61;20441;-66
2021/10/04 06:12:26;0.00;0.00;0.62;0.00;0.00;0.62;3.10;1.30;;;26.60;29.20;;;;;;2253427;61;20649;-69
2021/10/04 06:15:13;0.00;0.00;0.62;0.00;0.00;0.62;2.90;1.07;;;26.50;29.00;;;;;;2253454;61;20392;-70
2021/10/04 06:17:59;0.00;0.00;0.62;0.00;0.00;0.62;4.67;1.67;;;26.50;29.00;;;;;;2253780;61;20395;-71
2021/10/04 06:20:44;0.00;0.00;0.62;0.00;0.00;0.62;2.00;1.00;;;26.40;29.00;;;;;;2255311;61;20368;-69
2021/10/04 06:23:28;0.00;0.00;0.62;0.00;0.00;0.62;3.83;1.13;;;26.40;29.00;;;;;;2253461;61;20359;-69
2021/10/04 06:26:13;0.00;0.00;0.62;0.00;0.00;0.62;2.20;1.20;;;26.40;29.10;;;;;;2253773;61;20419;-67
2021/10/04 06:28:57;0.00;0.00;0.62;0.00;0.00;0.62;3.03;1.30;;;26.40;29.10;;;;;;2253148;61;20360;-70
2021/10/04 06:31:42;0.00;0.00;0.62;0.00;0.00;0.62;2.03;1.30;;;26.30;29.10;;;;;;2256066;61;20360;-70
2021/10/04 06:34:28;0.00;0.00;0.62;0.00;0.00;0.62;1.60;0.97;;;26.40;29.20;;;;;;2255550;61;20383;-68
2021/10/04 06:37:12;0.00;0.00;0.62;0.00;0.00;0.62;1.90;1.10;;;26.30;29.20;;;;;;2253222;61;20355;-68
2021/10/04 06:39:57;0.00;0.00;0.62;0.00;0.00;0.62;2.10;1.17;;;26.30;29.20;;;;;;2253953;61;20583;-67
2021/10/04 06:42:41;0.00;0.00;0.62;0.00;0.00;0.62;2.53;1.40;;;26.30;29.20;;;;;;2252970;61;20400;-67
2021/10/04 06:45:26;0.00;0.00;0.62;0.00;0.00;0.62;2.00;1.30;;;26.30;29.20;;;;;;2253339;61;20395;-66
2021/10/04 06:48:11;0.00;0.00;0.62;0.00;0.00;0.62;2.70;1.43;;;26.30;29.30;;;;;;2253832;61;20364;-65
2021/10/04 06:50:57;0.00;0.00;0.62;0.00;0.00;0.62;2.50;1.33;;;26.30;29.30;;;;;;2253220;61;20375;-69
2021/10/04 06:53:41;0.00;0.00;0.62;0.00;0.00;0.62;2.13;1.10;;;26.30;29.30;;;;;;2253357;61;20443;-68
2021/10/04 06:56:26;0.00;0.00;0.62;0.00;0.00;0.62;4.17;1.63;;;26.30;29.30;;;;;;2253419;61;20411;-69
2021/10/04 06:59:13;0.00;0.00;0.62;0.00;0.00;0.62;2.23;1.30;;;26.30;29.30;;;;;;2253253;61;20416;-69
2021/10/04 07:01:58;0.00;0.00;0.62;0.00;0.00;0.62;2.60;1.50;;;26.30;29.40;;;;;;2253734;61;20395;-66
2021/10/04 07:04:42;0.00;0.00;0.62;0.00;0.00;0.62;3.10;1.23;;;26.30;29.40;;;;;;2252948;61;20384;-68
2021/10/04 07:07:28;0.00;0.00;0.62;0.00;0.00;0.62;2.40;1.20;;;26.30;29.40;;;;;;2253418;61;20380;-69
2021/10/04 07:10:13;0.00;0.00;0.62;0.00;0.00;0.62;3.37;1.23;;;26.30;29.40;;;;;;2253862;61;20410;-66
2021/10/04 07:12:59;0.00;0.00;0.62;0.00;0.00;0.62;3.10;1.60;;;26.30;29.40;;;;;;2253043;61;20447;-66
2021/10/04 07:15:43;0.00;0.00;0.62;0.00;0.00;0.62;3.50;1.07;;;26.30;29.40;;;;;;2253608;61;20410;-67
2021/10/04 07:18:28;0.00;0.00;0.62;0.00;0.00;0.62;1.73;1.07;;;26.30;29.40;;;;;;2253496;61;20407;-66
2021/10/04 07:21:12;0.00;0.00;0.62;0.00;0.00;0.62;4.90;1.10;;;26.30;29.30;;;;;;2253281;61;20364;-69
2021/10/04 07:23:59;0.00;0.00;0.62;0.00;0.00;0.62;3.30;1.40;;;26.30;29.30;;;;;;2253574;61;20502;-69
2021/10/04 07:26:44;0.00;0.00;0.62;0.00;0.00;0.62;2.07;1.10;;;26.30;29.30;;;;;;2253622;61;20374;-69
2021/10/04 07:29:28;0.00;0.00;0.62;0.00;0.00;0.62;4.63;1.00;;;26.20;29.20;;;;;;2253411;61;20634;-68
2021/10/04 07:32:13;0.00;0.00;0.62;0.00;0.00;0.62;1.70;1.20;;;26.20;29.10;;;;;;2253773;61;20411;-70
2021/10/04 07:34:57;0.00;0.00;0.62;0.00;0.00;0.62;2.27;1.57;;;26.20;29.10;;;;;;2252852;61;20434;-67
2021/10/04 07:37:42;0.00;0.00;0.62;0.00;0.00;0.62;2.10;1.10;;;26.20;29.20;;;;;;2253576;61;21037;-66
2021/10/04 07:40:29;0.00;0.00;0.62;0.00;0.00;0.62;1.83;1.00;;;26.20;29.30;;;;;;2253901;61;20356;-66
2021/10/04 07:43:14;0.00;0.00;0.62;0.00;0.00;0.62;2.93;1.10;;;26.20;29.30;;;;;;2255511;61;20427;-69
2021/10/04 07:45:58;0.00;0.00;0.62;0.00;0.00;0.62;2.20;1.10;;;26.30;29.40;;;;;;2253662;61;20483;-66
2021/10/04 07:48:43;0.00;0.00;0.62;0.00;0.00;0.62;4.50;1.13;;;26.30;29.50;;;;;;2253132;61;20379;-64
2021/10/04 07:51:29;0.00;0.00;0.62;0.00;0.00;0.62;1.90;1.10;;;26.30;29.50;;;;;;2502995;53;20356;-65
2021/10/04 07:54:14;0.00;0.00;0.62;0.00;0.00;0.62;2.33;1.00;;;26.30;29.60;;;;;;2248476;61;20397;-66
2021/10/04 07:57:00;0.00;0.00;0.62;0.00;0.00;0.62;4.53;0.90;;;26.30;29.60;;;;;;2249139;61;20353;-66
2021/10/04 07:59:44;0.00;0.00;0.62;0.00;0.00;0.62;2.10;1.10;;;26.30;29.60;;;;;;2248818;61;20420;-67
2021/10/04 08:02:29;0.00;0.00;0.62;0.00;0.00;0.62;1.37;1.00;;;26.40;29.70;;;;;;2249757;61;20384;-67
2021/10/04 08:05:14;0.00;0.00;0.62;0.00;0.00;0.62;2.90;1.20;;;26.40;29.70;;;;;;2249099;61;20440;-67
2021/10/04 08:07:59;0.00;0.00;0.62;0.00;0.00;0.62;2.27;1.23;;;26.40;29.70;;;;;;2249541;61;20415;-67
2021/10/04 08:10:44;0.00;0.00;0.62;0.00;0.00;0.62;2.10;0.93;;;26.40;29.70;;;;;;2249331;61;20363;-66
2021/10/04 08:13:29;0.00;0.00;0.62;0.00;0.00;0.62;2.47;1.03;;;26.40;29.70;;;;;;2248947;61;20368;-66
2021/10/04 08:16:14;0.00;0.00;0.62;0.00;0.00;0.62;3.37;1.20;;;26.50;29.70;;;;;;2249910;61;20353;-66
2021/10/04 08:18:59;0.00;0.00;0.62;0.00;0.00;0.62;2.20;1.10;;;26.50;29.70;;;;;;2249156;61;20585;-66
2021/10/04 08:21:43;0.00;0.00;0.62;0.00;0.00;0.62;1.83;0.90;;;26.50;29.70;;;;;;2249327;61;20631;-66
2021/10/04 08:24:28;0.00;0.00;0.62;0.00;0.00;0.62;1.50;1.00;;;26.50;29.70;;;;;;2249690;61;20645;-67
2021/10/04 08:27:12;0.00;0.00;0.62;0.00;0.00;0.62;1.67;1.10;;;26.50;29.80;;;;;;2248880;61;20627;-66
2021/10/04 08:29:58;0.00;0.00;0.62;0.00;0.00;0.62;1.80;1.00;;;26.50;29.70;;;;;;2249575;61;20792;-66
2021/10/04 08:32:45;0.00;0.00;0.62;0.00;0.00;0.62;1.50;0.90;;;26.50;29.70;;;;;;2249406;61;20477;-66
2021/10/04 08:35:30;0.00;0.00;0.62;0.00;0.00;0.62;1.90;1.00;;;26.50;29.70;;;;;;2249759;61;20486;-66
2021/10/04 08:38:15;0.00;0.00;0.62;0.00;0.00;0.62;1.93;1.10;;;26.50;29.70;;;;;;2250117;61;20404;-66
2021/10/04 08:41:00;0.00;0.00;0.62;0.00;0.00;0.62;2.37;1.20;;;26.50;29.70;;;;;;2249550;61;20576;-66
2021/10/04 08:43:48;0.00;0.00;0.62;0.00;0.00;0.62;1.80;0.87;;;26.60;29.80;;;;;;2249918;61;20449;-67
2021/10/04 08:46:37;0.00;0.00;0.62;0.00;0.00;0.62;1.47;0.80;;;26.60;29.80;;;;;;2250296;61;20428;-67
2021/10/04 08:49:23;0.00;0.00;0.62;0.00;0.00;0.62;1.83;0.70;;;26.60;29.80;;;;;;2249712;61;20436;-67
2021/10/04 08:52:08;0.00;0.00;0.62;0.00;0.00;0.62;1.47;0.90;;;26.60;29.80;;;;;;2250156;61;20364;-66
2021/10/04 08:54:52;0.00;0.00;0.62;0.00;0.00;0.62;2.03;1.00;;;26.60;29.80;;;;;;2249832;61;20846;-67
2021/10/04 08:57:37;0.00;0.00;0.62;0.00;0.00;0.62;2.90;1.10;;;26.60;29.80;;;;;;2249667;61;20592;-67
2021/10/04 09:00:22;0.00;0.00;0.62;0.00;0.00;0.62;1.40;0.80;;;26.70;29.80;;;;;;2250202;61;20356;-67
2021/10/04 09:03:10;0.00;0.00;0.62;0.00;0.00;0.62;1.93;0.90;;;26.70;29.80;;;;;;2249737;61;20428;-66
2021/10/04 09:05:56;0.00;0.00;0.62;0.00;0.00;0.62;2.17;1.10;;;26.70;29.80;;;;;;2249874;61;20388;-66
2021/10/04 09:08:51;0.00;0.00;0.62;0.00;0.00;0.62;1.93;0.83;;;26.70;29.80;;;;;;2250213;61;20430;-66
2021/10/04 09:11:38;0.00;0.00;0.62;0.00;0.00;0.62;1.90;0.90;;;26.70;29.80;;;;;;2249559;61;20650;-66
2021/10/04 09:14:30;0.00;0.00;0.62;0.00;0.00;0.62;1.43;0.83;;;26.70;29.80;;;;;;2249783;61;20469;-66
2021/10/04 09:17:15;0.00;0.00;0.62;0.00;0.00;0.62;1.60;0.90;;;26.70;29.80;;;;;;2249811;61;20361;-66
2021/10/04 09:20:02;0.00;0.00;0.62;0.00;0.00;0.62;1.30;0.80;;;26.70;29.70;;;;;;2249750;61;20411;-66
2021/10/04 09:22:47;0.00;0.00;0.62;0.00;0.00;0.62;1.20;0.80;;;26.70;29.70;;;;;;2249944;61;20439;-66
2021/10/04 09:25:40;0.00;0.00;0.62;0.00;0.00;0.62;1.30;0.77;;;26.70;29.70;;;;;;2249532;61;20408;-66
2021/10/04 09:28:30;0.00;0.00;0.62;0.00;0.00;0.62;1.63;0.80;;;26.70;29.70;;;;;;2249877;61;20384;-67
2021/10/04 09:31:20;0.00;0.00;0.62;0.00;0.00;0.62;1.77;0.90;;;26.70;29.70;;;;;;2250222;61;20441;-67
2021/10/04 09:34:09;0.00;0.00;0.62;0.00;0.00;0.62;1.50;0.93;;;26.70;29.70;;;;;;2249849;61;20714;-66
2021/10/04 09:36:58;0.00;0.00;0.62;0.00;0.00;0.62;1.50;0.70;;;26.70;29.70;;;;;;2250177;61;20360;-66
2021/10/04 09:39:43;0.00;0.00;0.62;0.00;0.00;0.62;1.60;0.90;;;26.80;29.80;;;;;;2250001;61;20385;-66
2021/10/04 09:42:28;0.00;0.00;0.62;0.00;0.00;0.62;1.93;0.80;;;26.80;29.80;;;;;;2249689;61;20384;-67
2021/10/04 09:45:14;0.00;0.00;0.62;0.00;0.00;0.62;1.60;0.70;;;26.80;29.80;;;;;;2250158;61;20408;-67
2021/10/04 09:48:09;0.00;0.00;0.62;0.00;0.00;0.62;1.30;0.80;;;26.80;29.80;;;;;;2249581;61;20420;-67
2021/10/04 09:50:55;0.00;0.00;0.62;0.00;0.00;0.62;1.37;0.80;;;26.80;29.80;;;;;;2249822;61;20356;-67
2021/10/04 09:53:41;0.00;0.00;0.62;0.00;0.00;0.62;2.13;0.93;;;26.80;29.80;;;;;;2249971;61;20361;-67
2021/10/04 09:56:26;0.00;0.00;0.62;0.00;0.00;0.62;1.93;1.03;;;26.80;29.80;;;;;;2249775;61;20364;-67
2021/10/04 09:59:11;0.00;0.00;0.62;0.00;0.00;0.62;1.30;0.70;;;26.80;29.80;;;;;;2250080;61;20404;-67
2021/10/04 10:01:55;0.00;0.00;0.62;0.00;0.00;0.62;1.70;0.70;;;26.80;29.80;;;;;;2249864;61;20407;-65
2021/10/04 10:04:40;0.00;0.00;0.62;0.00;0.00;0.62;1.67;0.80;;;26.80;29.80;;;;;;2249611;61;20420;-66
2021/10/04 10:07:26;0.00;0.00;0.62;0.00;0.00;0.62;1.20;0.70;;;26.80;29.80;;;;;;2250143;61;20670;-65
2021/10/04 10:10:12;0.00;0.00;0.62;0.00;0.00;0.62;1.40;0.77;;;26.80;29.80;;;;;;2249472;61;20368;-67
2021/10/04 10:12:57;0.00;0.00;0.62;0.00;0.00;0.62;1.50;0.93;;;26.80;29.80;;;;;;2249616;61;20376;-67
2021/10/04 10:15:46;0.00;0.00;0.62;0.00;0.00;0.62;1.50;0.80;;;26.80;29.80;;;;;;2250014;61;20380;-65
2021/10/04 10:18:39;0.00;0.00;0.62;0.00;0.00;0.62;1.27;0.70;;;26.90;29.80;;;;;;2249663;61;20597;-67
2021/10/04 10:21:28;0.00;0.00;0.62;0.00;0.00;0.62;1.50;0.90;;;26.90;29.80;;;;;;2249964;61;20417;-66
2021/10/04 10:24:12;0.00;0.00;0.62;0.00;0.00;0.62;1.40;0.90;;;26.90;29.80;;;;;;2249425;61;20396;-66
2021/10/04 10:26:59;0.00;0.00;0.62;0.00;0.00;0.62;1.50;0.80;;;26.90;29.80;;;;;;2249690;61;20388;-67
2021/10/04 10:29:44;0.00;0.00;0.62;0.00;0.00;0.62;1.60;0.80;;;26.90;29.80;;;;;;2250114;61;20368;-66
2021/10/04 10:32:35;0.00;0.00;0.62;0.00;0.00;0.62;1.40;0.90;;;26.90;29.80;;;;;;2249005;61;20361;-67
2021/10/04 10:35:50;0.00;0.00;0.62;0.00;0.00;0.62;1.30;0.70;;;26.90;29.80;;;;;;2249822;61;20384;-67
2021/10/04 10:39:00;0.00;0.00;0.62;0.00;0.00;0.62;1.63;0.80;;;26.90;29.80;;;;;;2249707;61;20359;-67
2021/10/04 10:42:12;0.00;0.00;0.62;0.00;0.00;0.62;1.60;0.80;;;26.90;29.80;;;;;;2249662;61;20353;-67
2021/10/04 10:45:12;0.00;0.00;0.62;0.00;0.00;0.62;1.40;0.80;;;26.90;29.80;;;;;;2249931;61;20388;-67
2021/10/04 10:47:58;0.00;0.00;0.62;0.00;0.00;0.62;1.60;1.00;;;26.90;29.80;;;;;;2249371;61;20400;-67
2021/10/04 10:50:46;0.00;0.00;0.62;0.00;0.00;0.62;1.40;0.83;;;26.90;29.80;;;;;;2249737;61;20391;-67
2021/10/04 10:53:30;0.00;0.00;0.62;0.00;0.00;0.62;1.60;0.80;;;27.00;29.90;;;;;;2249491;61;20416;-67